sensor_id;sensor_type;location;lat;lon;timestamp;temperature;humidity
3876;DHT22;1953;51.222;6.624;2022-12-24T00:00:54;12.60;1.00
3876;DHT22;1953;51.222;6.624;2022-12-24T00:09:00;12.50;1.00
3876;DHT22;1953;51.222;6.624;2022-12-24T00:13:42;12.40;1.00
3876;DHT22;1953;51.222;6.624;2022-12-24T00:18:25;12.30;1.00
3876;DHT22;1953;51.222;6.624;2022-12-24T00:23:07;12.30;1.00
3876;DHT22;1953;51.222;6.624;2022-12-24T00:27:51;12.20;1.00
3876;DHT22;1953;51.222;6.624;2022-12-24T00:32:33;12.30;1.00
3876;DHT22;1953;51.222;6.624;2022-12-24T00:37:17;12.30;1.00
3876;DHT22;1953;51.222;6.624;2022-12-24T00:42:00;12.20;1.00
3876;DHT22;1953;51.222;6.624;2022-12-24T00:46:44;12.20;1.00
3876;DHT22;1953;51.222;6.624;2022-12-24T00:51:27;12.10;1.00
3876;DHT22;1953;51.222;6.624;2022-12-24T00:56:09;12.10;1.00
3876;DHT22;1953;51.222;6.624;2022-12-24T01:00:51;12.10;1.00
3876;DHT22;1953;51.222;6.624;2022-12-24T01:05:35;12.10;1.00
3876;DHT22;1953;51.222;6.624;2022-12-24T01:10:19;12.10;1.00
3876;DHT22;1953;51.222;6.624;2022-12-24T01:15:01;12.10;1.00
3876;DHT22;1953;51.222;6.624;2022-12-24T01:19:44;12.00;1.00
3876;DHT22;1953;51.222;6.624;2022-12-24T01:24:28;12.00;1.00
3876;DHT22;1953;51.222;6.624;2022-12-24T01:29:10;11.90;1.00
3876;DHT22;1953;51.222;6.624;2022-12-24T01:33:53;11.90;1.00
3876;DHT22;1953;51.222;6.624;2022-12-24T01:38:35;11.80;1.00
3876;DHT22;1953;51.222;6.624;2022-12-24T01:43:21;11.80;1.00
3876;DHT22;1953;51.222;6.624;2022-12-24T01:48:15;11.70;1.00
3876;DHT22;1953;51.222;6.624;2022-12-24T01:52:58;11.70;1.00
3876;DHT22;1953;51.222;6.624;2022-12-24T01:57:45;11.70;1.00
3876;DHT22;1953;51.222;6.624;2022-12-24T02:02:31;11.70;1.00
3876;DHT22;1953;51.222;6.624;2022-12-24T02:07:14;11.70;1.00
3876;DHT22;1953;51.222;6.624;2022-12-24T02:11:57;11.70;1.00
3876;DHT22;1953;51.222;6.624;2022-12-24T02:16:46;11.70;1.00
3876;DHT22;1953;51.222;6.624;2022-12-24T02:21:56;11.70;1.00
3876;DHT22;1953;51.222;6.624;2022-12-24T02:26:55;11.70;1.00
3876;DHT22;1953;51.222;6.624;2022-12-24T02:31:47;11.70;1.00
3876;DHT22;1953;51.222;6.624;2022-12-24T02:36:33;11.70;1.00
3876;DHT22;1953;51.222;6.624;2022-12-24T02:41:20;11.70;1.00
3876;DHT22;1953;51.222;6.624;2022-12-24T02:46:07;11.70;1.00
3876;DHT22;1953;51.222;6.624;2022-12-24T02:51:02;11.70;1.00
3876;DHT22;1953;51.222;6.624;2022-12-24T02:55:54;11.70;1.00
3876;DHT22;1953;51.222;6.624;2022-12-24T03:00:48;11.80;1.00
3876;DHT22;1953;51.222;6.624;2022-12-24T03:05:37;11.80;1.00
3876;DHT22;1953;51.222;6.624;2022-12-24T03:10:28;11.70;1.00
3876;DHT22;1953;51.222;6.624;2022-12-24T03:15:15;11.80;1.00
3876;DHT22;1953;51.222;6.624;2022-12-24T03:19:58;11.80;1.00
3876;DHT22;1953;51.222;6.624;2022-12-24T03:24:40;11.80;1.00
3876;DHT22;1953;51.222;6.624;2022-12-24T03:29:24;11.90;1.00
3876;DHT22;1953;51.222;6.624;2022-12-24T03:34:07;11.90;1.00
3876;DHT22;1953;51.222;6.624;2022-12-24T03:38:49;11.90;1.00
3876;DHT22;1953;51.222;6.624;2022-12-24T03:43:32;11.90;1.00
3876;DHT22;1953;51.222;6.624;2022-12-24T03:48:15;11.90;1.00
3876;DHT22;1953;51.222;6.624;2022-12-24T03:52:58;11.90;1.00
3876;DHT22;1953;51.222;6.624;2022-12-24T03:57:40;11.90;1.00
3876;DHT22;1953;51.222;6.624;2022-12-24T04:02:23;11.90;1.00
3876;DHT22;1953;51.222;6.624;2022-12-24T04:07:07;11.90;1.00
3876;DHT22;1953;51.222;6.624;2022-12-24T04:11:49;11.90;1.00
3876;DHT22;1953;51.222;6.624;2022-12-24T04:16:31;11.80;1.00
3876;DHT22;1953;51.222;6.624;2022-12-24T04:21:14;11.90;1.00
3876;DHT22;1953;51.222;6.624;2022-12-24T04:25:59;11.90;1.00
3876;DHT22;1953;51.222;6.624;2022-12-24T04:30:42;11.90;1.00
3876;DHT22;1953;51.222;6.624;2022-12-24T04:35:25;11.80;1.00
3876;DHT22;1953;51.222;6.624;2022-12-24T04:40:08;11.70;1.00
3876;DHT22;1953;51.222;6.624;2022-12-24T04:44:52;11.80;1.00
3876;DHT22;1953;51.222;6.624;2022-12-24T04:49:34;11.80;1.00
3876;DHT22;1953;51.222;6.624;2022-12-24T04:54:17;11.90;1.00
3876;DHT22;1953;51.222;6.624;2022-12-24T04:58:59;11.80;1.00
3876;DHT22;1953;51.222;6.624;2022-12-24T05:03:44;11.80;1.00
3876;DHT22;1953;51.222;6.624;2022-12-24T05:08:26;11.90;1.00
3876;DHT22;1953;51.222;6.624;2022-12-24T05:13:09;11.80;1.00
3876;DHT22;1953;51.222;6.624;2022-12-24T05:17:51;11.90;1.00
3876;DHT22;1953;51.222;6.624;2022-12-24T05:22:35;11.80;1.00
3876;DHT22;1953;51.222;6.624;2022-12-24T05:27:35;11.90;1.00
3876;DHT22;1953;51.222;6.624;2022-12-24T05:32:17;11.90;1.00
3876;DHT22;1953;51.222;6.624;2022-12-24T05:37:00;11.90;1.00
3876;DHT22;1953;51.222;6.624;2022-12-24T05:41:44;11.90;1.00
3876;DHT22;1953;51.222;6.624;2022-12-24T05:46:27;11.90;1.00
3876;DHT22;1953;51.222;6.624;2022-12-24T05:51:12;11.80;1.00
3876;DHT22;1953;51.222;6.624;2022-12-24T05:56:02;11.80;1.00
3876;DHT22;1953;51.222;6.624;2022-12-24T06:00:45;11.80;1.00
3876;DHT22;1953;51.222;6.624;2022-12-24T06:05:28;11.80;1.00
3876;DHT22;1953;51.222;6.624;2022-12-24T06:10:11;11.80;1.00
3876;DHT22;1953;51.222;6.624;2022-12-24T06:14:53;11.80;1.00
3876;DHT22;1953;51.222;6.624;2022-12-24T06:19:37;11.80;1.00
3876;DHT22;1953;51.222;6.624;2022-12-24T06:24:19;11.80;1.00
3876;DHT22;1953;51.222;6.624;2022-12-24T06:29:01;11.80;1.00
3876;DHT22;1953;51.222;6.624;2022-12-24T06:33:44;11.80;1.00
3876;DHT22;1953;51.222;6.624;2022-12-24T06:38:29;11.80;1.00
3876;DHT22;1953;51.222;6.624;2022-12-24T06:43:13;11.80;1.00
3876;DHT22;1953;51.222;6.624;2022-12-24T06:47:56;11.80;1.00
3876;DHT22;1953;51.222;6.624;2022-12-24T06:52:38;11.90;1.00
3876;DHT22;1953;51.222;6.624;2022-12-24T06:57:22;11.80;1.00
3876;DHT22;1953;51.222;6.624;2022-12-24T07:02:04;11.70;1.00
3876;DHT22;1953;51.222;6.624;2022-12-24T07:06:47;11.70;1.00
3876;DHT22;1953;51.222;6.624;2022-12-24T07:11:29;11.70;1.00
3876;DHT22;1953;51.222;6.624;2022-12-24T07:16:13;11.70;1.00
3876;DHT22;1953;51.222;6.624;2022-12-24T07:20:56;11.60;1.00
3876;DHT22;1953;51.222;6.624;2022-12-24T07:25:41;11.60;1.00
3876;DHT22;1953;51.222;6.624;2022-12-24T07:30:23;11.60;1.00
3876;DHT22;1953;51.222;6.624;2022-12-24T07:35:07;11.60;1.00
3876;DHT22;1953;51.222;6.624;2022-12-24T07:39:50;11.60;1.00
3876;DHT22;1953;51.222;6.624;2022-12-24T07:44:32;11.60;1.00
3876;DHT22;1953;51.222;6.624;2022-12-24T07:49:15;11.50;1.00
3876;DHT22;1953;51.222;6.624;2022-12-24T07:53:58;11.50;1.00
3876;DHT22;1953;51.222;6.624;2022-12-24T07:58:41;11.50;1.00
3876;DHT22;1953;51.222;6.624;2022-12-24T08:03:24;11.50;1.00
3876;DHT22;1953;51.222;6.624;2022-12-24T08:08:06;11.50;1.00
3876;DHT22;1953;51.222;6.624;2022-12-24T08:12:50;11.50;1.00
3876;DHT22;1953;51.222;6.624;2022-12-24T08:17:32;11.50;1.00
3876;DHT22;1953;51.222;6.624;2022-12-24T08:22:15;11.50;1.00
3876;DHT22;1953;51.222;6.624;2022-12-24T08:26:57;11.50;1.00
3876;DHT22;1953;51.222;6.624;2022-12-24T08:31:42;11.50;1.00
3876;DHT22;1953;51.222;6.624;2022-12-24T08:36:24;11.60;1.00
3876;DHT22;1953;51.222;6.624;2022-12-24T08:41:07;11.70;1.00
3876;DHT22;1953;51.222;6.624;2022-12-24T08:45:49;11.70;1.00
3876;DHT22;1953;51.222;6.624;2022-12-24T08:50:33;11.80;1.00
3876;DHT22;1953;51.222;6.624;2022-12-24T08:55:16;11.80;1.00
3876;DHT22;1953;51.222;6.624;2022-12-24T08:59:58;11.90;1.00
3876;DHT22;1953;51.222;6.624;2022-12-24T09:04:41;11.90;1.00
3876;DHT22;1953;51.222;6.624;2022-12-24T09:09:25;11.90;1.00
3876;DHT22;1953;51.222;6.624;2022-12-24T09:14:09;12.00;1.00
3876;DHT22;1953;51.222;6.624;2022-12-24T09:18:51;11.90;1.00
3876;DHT22;1953;51.222;6.624;2022-12-24T09:23:34;11.90;1.00
3876;DHT22;1953;51.222;6.624;2022-12-24T09:28:21;11.90;1.00
3876;DHT22;1953;51.222;6.624;2022-12-24T09:33:04;11.80;1.00
3876;DHT22;1953;51.222;6.624;2022-12-24T09:37:46;11.90;1.00
3876;DHT22;1953;51.222;6.624;2022-12-24T09:42:39;11.80;1.00
3876;DHT22;1953;51.222;6.624;2022-12-24T09:47:28;11.90;1.00
3876;DHT22;1953;51.222;6.624;2022-12-24T09:52:15;12.00;1.00
3876;DHT22;1953;51.222;6.624;2022-12-24T09:57:07;12.00;1.00
3876;DHT22;1953;51.222;6.624;2022-12-24T10:01:53;12.10;1.00
3876;DHT22;1953;51.222;6.624;2022-12-24T10:06:43;12.10;1.00
3876;DHT22;1953;51.222;6.624;2022-12-24T10:11:45;12.20;1.00
3876;DHT22;1953;51.222;6.624;2022-12-24T10:16:37;12.20;1.00
3876;DHT22;1953;51.222;6.624;2022-12-24T10:21:27;12.20;1.00
3876;DHT22;1953;51.222;6.624;2022-12-24T10:26:21;12.30;1.00
3876;DHT22;1953;51.222;6.624;2022-12-24T10:31:06;12.30;1.00
3876;DHT22;1953;51.222;6.624;2022-12-24T10:35:52;12.30;1.00
3876;DHT22;1953;51.222;6.624;2022-12-24T10:40:39;12.30;1.00
3876;DHT22;1953;51.222;6.624;2022-12-24T10:45:30;12.40;1.00
3876;DHT22;1953;51.222;6.624;2022-12-24T10:50:22;12.40;1.00
3876;DHT22;1953;51.222;6.624;2022-12-24T10:55:09;12.40;1.00
3876;DHT22;1953;51.222;6.624;2022-12-24T10:59:54;12.40;1.00
3876;DHT22;1953;51.222;6.624;2022-12-24T11:04:46;12.40;1.00
3876;DHT22;1953;51.222;6.624;2022-12-24T11:09:31;12.50;1.00
3876;DHT22;1953;51.222;6.624;2022-12-24T11:14:17;12.60;1.00
3876;DHT22;1953;51.222;6.624;2022-12-24T11:19:02;12.70;1.00
3876;DHT22;1953;51.222;6.624;2022-12-24T11:23:50;12.80;1.00
3876;DHT22;1953;51.222;6.624;2022-12-24T11:28:34;12.90;1.00
3876;DHT22;1953;51.222;6.624;2022-12-24T11:33:18;13.00;1.00
3876;DHT22;1953;51.222;6.624;2022-12-24T11:38:09;13.20;1.00
3876;DHT22;1953;51.222;6.624;2022-12-24T11:42:58;13.30;1.00
3876;DHT22;1953;51.222;6.624;2022-12-24T11:47:41;13.40;1.00
3876;DHT22;1953;51.222;6.624;2022-12-24T11:52:24;13.60;1.00
3876;DHT22;1953;51.222;6.624;2022-12-24T11:57:10;13.60;1.00
3876;DHT22;1953;51.222;6.624;2022-12-24T12:01:59;13.60;1.00
3876;DHT22;1953;51.222;6.624;2022-12-24T12:10:04;13.70;1.00
3876;DHT22;1953;51.222;6.624;2022-12-24T12:14:49;13.70;1.00
3876;DHT22;1953;51.222;6.624;2022-12-24T12:19:38;13.80;1.00
3876;DHT22;1953;51.222;6.624;2022-12-24T12:24:27;13.80;1.00
3876;DHT22;1953;51.222;6.624;2022-12-24T12:29:22;13.80;1.00
3876;DHT22;1953;51.222;6.624;2022-12-24T12:34:10;13.80;1.00
3876;DHT22;1953;51.222;6.624;2022-12-24T12:38:53;14.00;1.00
3876;DHT22;1953;51.222;6.624;2022-12-24T12:43:54;14.10;1.00
3876;DHT22;1953;51.222;6.624;2022-12-24T12:48:49;14.20;1.00
3876;DHT22;1953;51.222;6.624;2022-12-24T12:54:03;14.40;1.00
3876;DHT22;1953;51.222;6.624;2022-12-24T12:58:52;14.50;1.00
3876;DHT22;1953;51.222;6.624;2022-12-24T13:04:03;14.50;1.00
3876;DHT22;1953;51.222;6.624;2022-12-24T13:09:10;14.60;1.00
3876;DHT22;1953;51.222;6.624;2022-12-24T13:14:02;14.60;1.00
3876;DHT22;1953;51.222;6.624;2022-12-24T13:18:57;14.80;1.00
3876;DHT22;1953;51.222;6.624;2022-12-24T13:23:41;14.90;1.00
3876;DHT22;1953;51.222;6.624;2022-12-24T13:28:34;15.10;1.00
3876;DHT22;1953;51.222;6.624;2022-12-24T13:38:40;15.40;1.00
3876;DHT22;1953;51.222;6.624;2022-12-24T13:43:23;15.10;1.00
3876;DHT22;1953;51.222;6.624;2022-12-24T13:48:26;14.80;1.00
3876;DHT22;1953;51.222;6.624;2022-12-24T13:53:21;14.80;1.00
3876;DHT22;1953;51.222;6.624;2022-12-24T13:58:05;14.80;1.00
3876;DHT22;1953;51.222;6.624;2022-12-24T14:02:50;14.90;1.00
3876;DHT22;1953;51.222;6.624;2022-12-24T14:07:34;14.70;1.00
3876;DHT22;1953;51.222;6.624;2022-12-24T14:17:33;14.90;1.00
3876;DHT22;1953;51.222;6.624;2022-12-24T14:22:27;14.80;1.00
3876;DHT22;1953;51.222;6.624;2022-12-24T14:27:16;14.70;1.00
3876;DHT22;1953;51.222;6.624;2022-12-24T14:32:01;14.50;1.00
3876;DHT22;1953;51.222;6.624;2022-12-24T14:36:46;14.40;1.00
3876;DHT22;1953;51.222;6.624;2022-12-24T14:41:36;14.20;1.00
3876;DHT22;1953;51.222;6.624;2022-12-24T14:46:25;14.10;1.00
3876;DHT22;1953;51.222;6.624;2022-12-24T14:51:13;13.80;1.00
3876;DHT22;1953;51.222;6.624;2022-12-24T14:56:10;13.80;1.00
3876;DHT22;1953;51.222;6.624;2022-12-24T15:00:56;13.60;1.00
3876;DHT22;1953;51.222;6.624;2022-12-24T15:05:39;13.40;1.00
3876;DHT22;1953;51.222;6.624;2022-12-24T15:10:28;13.40;1.00
3876;DHT22;1953;51.222;6.624;2022-12-24T15:15:15;13.30;1.00
3876;DHT22;1953;51.222;6.624;2022-12-24T15:19:58;13.20;1.00
3876;DHT22;1953;51.222;6.624;2022-12-24T15:24:44;13.00;1.00
3876;DHT22;1953;51.222;6.624;2022-12-24T15:29:28;12.90;1.00
3876;DHT22;1953;51.222;6.624;2022-12-24T15:34:25;12.80;1.00
3876;DHT22;1953;51.222;6.624;2022-12-24T15:39:13;12.70;1.00
3876;DHT22;1953;51.222;6.624;2022-12-24T15:44:00;12.60;1.00
3876;DHT22;1953;51.222;6.624;2022-12-24T15:48:44;12.60;1.00
3876;DHT22;1953;51.222;6.624;2022-12-24T15:53:30;12.50;1.00
3876;DHT22;1953;51.222;6.624;2022-12-24T15:58:15;12.40;1.00
3876;DHT22;1953;51.222;6.624;2022-12-24T16:03:15;12.20;1.00
3876;DHT22;1953;51.222;6.624;2022-12-24T16:08:00;12.10;1.00
3876;DHT22;1953;51.222;6.624;2022-12-24T16:12:50;12.00;1.00
3876;DHT22;1953;51.222;6.624;2022-12-24T16:17:33;11.90;1.00
3876;DHT22;1953;51.222;6.624;2022-12-24T16:22:19;11.80;1.00
3876;DHT22;1953;51.222;6.624;2022-12-24T16:27:15;11.70;1.00
3876;DHT22;1953;51.222;6.624;2022-12-24T16:31:59;11.60;1.00
3876;DHT22;1953;51.222;6.624;2022-12-24T16:36:42;11.40;1.00
3876;DHT22;1953;51.222;6.624;2022-12-24T16:41:25;11.30;1.00
3876;DHT22;1953;51.222;6.624;2022-12-24T16:46:09;11.30;1.00
3876;DHT22;1953;51.222;6.624;2022-12-24T16:50:55;11.20;1.00
3876;DHT22;1953;51.222;6.624;2022-12-24T16:55:38;11.10;1.00
3876;DHT22;1953;51.222;6.624;2022-12-24T17:00:21;11.10;1.00
3876;DHT22;1953;51.222;6.624;2022-12-24T17:05:06;11.10;1.00
3876;DHT22;1953;51.222;6.624;2022-12-24T17:09:50;11.00;1.00
3876;DHT22;1953;51.222;6.624;2022-12-24T17:14:33;10.90;1.00
3876;DHT22;1953;51.222;6.624;2022-12-24T17:19:15;10.80;1.00
3876;DHT22;1953;51.222;6.624;2022-12-24T17:23:58;10.70;1.00
3876;DHT22;1953;51.222;6.624;2022-12-24T17:28:42;10.60;1.00
3876;DHT22;1953;51.222;6.624;2022-12-24T17:33:25;10.60;1.00
3876;DHT22;1953;51.222;6.624;2022-12-24T17:38:07;10.50;1.00
3876;DHT22;1953;51.222;6.624;2022-12-24T17:42:50;10.40;1.00
3876;DHT22;1953;51.222;6.624;2022-12-24T17:47:33;10.30;1.00
3876;DHT22;1953;51.222;6.624;2022-12-24T17:52:16;10.30;1.00
3876;DHT22;1953;51.222;6.624;2022-12-24T17:56:58;10.30;1.00
3876;DHT22;1953;51.222;6.624;2022-12-24T18:01:41;10.20;1.00
3876;DHT22;1953;51.222;6.624;2022-12-24T18:06:26;10.10;1.00
3876;DHT22;1953;51.222;6.624;2022-12-24T18:11:13;10.00;1.00
3876;DHT22;1953;51.222;6.624;2022-12-24T18:15:55;9.90;1.00
3876;DHT22;1953;51.222;6.624;2022-12-24T18:20:38;9.90;1.00
3876;DHT22;1953;51.222;6.624;2022-12-24T18:25:22;9.80;1.00
3876;DHT22;1953;51.222;6.624;2022-12-24T18:30:06;9.80;1.00
3876;DHT22;1953;51.222;6.624;2022-12-24T18:34:50;9.80;1.00
3876;DHT22;1953;51.222;6.624;2022-12-24T18:39:32;9.80;1.00
3876;DHT22;1953;51.222;6.624;2022-12-24T18:44:16;9.80;1.00
3876;DHT22;1953;51.222;6.624;2022-12-24T18:48:59;9.80;1.00
3876;DHT22;1953;51.222;6.624;2022-12-24T18:53:42;9.80;1.00
3876;DHT22;1953;51.222;6.624;2022-12-24T18:58:25;9.80;1.00
3876;DHT22;1953;51.222;6.624;2022-12-24T19:03:09;9.80;1.00
3876;DHT22;1953;51.222;6.624;2022-12-24T19:07:51;9.90;1.00
3876;DHT22;1953;51.222;6.624;2022-12-24T19:12:34;10.00;1.00
3876;DHT22;1953;51.222;6.624;2022-12-24T19:17:16;10.00;1.00
3876;DHT22;1953;51.222;6.624;2022-12-24T19:22:00;10.00;1.00
3876;DHT22;1953;51.222;6.624;2022-12-24T19:26:42;10.00;1.00
3876;DHT22;1953;51.222;6.624;2022-12-24T19:31:25;10.10;1.00
3876;DHT22;1953;51.222;6.624;2022-12-24T19:36:09;10.10;1.00
3876;DHT22;1953;51.222;6.624;2022-12-24T19:40:53;10.20;1.00
3876;DHT22;1953;51.222;6.624;2022-12-24T19:45:36;10.20;1.00
3876;DHT22;1953;51.222;6.624;2022-12-24T19:50:19;10.30;1.00
3876;DHT22;1953;51.222;6.624;2022-12-24T19:55:01;10.30;1.00
3876;DHT22;1953;51.222;6.624;2022-12-24T19:59:45;10.30;1.00
3876;DHT22;1953;51.222;6.624;2022-12-24T20:04:27;10.30;1.00
3876;DHT22;1953;51.222;6.624;2022-12-24T20:09:10;10.30;1.00
3876;DHT22;1953;51.222;6.624;2022-12-24T20:13:55;10.40;1.00
3876;DHT22;1953;51.222;6.624;2022-12-24T20:18:39;10.30;1.00
3876;DHT22;1953;51.222;6.624;2022-12-24T20:23:22;10.20;1.00
3876;DHT22;1953;51.222;6.624;2022-12-24T20:28:05;10.20;1.00
3876;DHT22;1953;51.222;6.624;2022-12-24T20:32:47;10.20;1.00
3876;DHT22;1953;51.222;6.624;2022-12-24T20:37:34;10.10;1.00
3876;DHT22;1953;51.222;6.624;2022-12-24T20:42:18;10.10;1.00
3876;DHT22;1953;51.222;6.624;2022-12-24T20:47:00;10.10;1.00
3876;DHT22;1953;51.222;6.624;2022-12-24T20:51:43;10.20;1.00
3876;DHT22;1953;51.222;6.624;2022-12-24T20:56:27;10.10;1.00
3876;DHT22;1953;51.222;6.624;2022-12-24T21:01:13;10.00;1.00
3876;DHT22;1953;51.222;6.624;2022-12-24T21:05:56;10.00;1.00
3876;DHT22;1953;51.222;6.624;2022-12-24T21:10:39;10.00;1.00
3876;DHT22;1953;51.222;6.624;2022-12-24T21:15:25;9.90;1.00
3876;DHT22;1953;51.222;6.624;2022-12-24T21:20:09;9.90;1.00
3876;DHT22;1953;51.222;6.624;2022-12-24T21:24:51;9.90;1.00
3876;DHT22;1953;51.222;6.624;2022-12-24T21:29:34;10.00;1.00
3876;DHT22;1953;51.222;6.624;2022-12-24T21:34:18;10.10;1.00
3876;DHT22;1953;51.222;6.624;2022-12-24T21:39:00;10.10;1.00
3876;DHT22;1953;51.222;6.624;2022-12-24T21:43:44;10.10;1.00
3876;DHT22;1953;51.222;6.624;2022-12-24T21:48:26;10.10;1.00
3876;DHT22;1953;51.222;6.624;2022-12-24T21:53:28;10.10;1.00
3876;DHT22;1953;51.222;6.624;2022-12-24T21:58:28;10.00;1.00
3876;DHT22;1953;51.222;6.624;2022-12-24T22:03:10;10.00;1.00
3876;DHT22;1953;51.222;6.624;2022-12-24T22:07:53;10.00;1.00
3876;DHT22;1953;51.222;6.624;2022-12-24T22:12:56;9.90;1.00
3876;DHT22;1953;51.222;6.624;2022-12-24T22:17:39;9.90;1.00
3876;DHT22;1953;51.222;6.624;2022-12-24T22:22:22;9.90;1.00
3876;DHT22;1953;51.222;6.624;2022-12-24T22:27:04;9.90;1.00
3876;DHT22;1953;51.222;6.624;2022-12-24T22:31:48;9.80;1.00
3876;DHT22;1953;51.222;6.624;2022-12-24T22:36:31;9.80;1.00
3876;DHT22;1953;51.222;6.624;2022-12-24T22:41:14;9.80;1.00
3876;DHT22;1953;51.222;6.624;2022-12-24T22:45:56;9.80;1.00
3876;DHT22;1953;51.222;6.624;2022-12-24T22:50:40;9.70;1.00
3876;DHT22;1953;51.222;6.624;2022-12-24T22:55:22;9.70;1.00
3876;DHT22;1953;51.222;6.624;2022-12-24T23:00:09;9.60;1.00
3876;DHT22;1953;51.222;6.624;2022-12-24T23:04:52;9.70;1.00
3876;DHT22;1953;51.222;6.624;2022-12-24T23:09:36;9.70;1.00
3876;DHT22;1953;51.222;6.624;2022-12-24T23:14:20;9.70;1.00
3876;DHT22;1953;51.222;6.624;2022-12-24T23:19:20;9.70;1.00
3876;DHT22;1953;51.222;6.624;2022-12-24T23:24:03;9.70;1.00
3876;DHT22;1953;51.222;6.624;2022-12-24T23:28:47;9.60;1.00
3876;DHT22;1953;51.222;6.624;2022-12-24T23:33:30;9.60;1.00
3876;DHT22;1953;51.222;6.624;2022-12-24T23:38:12;9.60;1.00
3876;DHT22;1953;51.222;6.624;2022-12-24T23:42:54;9.50;1.00
3876;DHT22;1953;51.222;6.624;2022-12-24T23:47:38;9.50;1.00
3876;DHT22;1953;51.222;6.624;2022-12-24T23:52:21;9.60;1.00
3876;DHT22;1953;51.222;6.624;2022-12-24T23:57:03;9.60;1.00
